createdAt,value
2018-08-13T00:00:10.468Z,1.53
2018-08-13T00:05:15.315Z,1.50
2018-08-13T00:10:20.050Z,1.93
2018-08-13T00:15:24.856Z,1.70
2018-08-13T00:20:29.643Z,2.23
2018-08-13T00:25:34.524Z,1.83
2018-08-13T00:30:39.704Z,2.10
2018-08-13T00:35:44.878Z,1.50
2018-08-13T00:40:49.770Z,2.77
2018-08-13T00:45:54.627Z,2.43
2018-08-13T00:50:59.445Z,2.67
2018-08-13T00:56:04.263Z,2.67
2018-08-13T01:01:09.077Z,2.17
2018-08-13T01:06:14.003Z,1.57
2018-08-13T01:11:19.120Z,3.60
2018-08-13T01:16:23.931Z,2.83
2018-08-13T01:21:28.725Z,2.63
2018-08-13T01:26:33.506Z,3.60
2018-08-13T01:31:38.339Z,1.70
2018-08-13T01:36:43.317Z,2.90
2018-08-13T01:41:48.113Z,1.57
2018-08-13T01:46:53.010Z,2.13
2018-08-13T01:51:57.889Z,2.17
2018-08-13T01:57:02.630Z,2.63
2018-08-13T02:02:07.455Z,1.73
2018-08-13T02:07:12.561Z,3.10
2018-08-13T02:12:17.422Z,3.07
2018-08-13T02:17:22.236Z,1.73
2018-08-13T02:22:27.053Z,2.23
2018-08-13T02:27:31.938Z,2.80
2018-08-13T02:32:36.826Z,2.23
2018-08-13T02:37:41.780Z,1.60
2018-08-13T02:42:46.828Z,2.40
2018-08-13T02:47:51.611Z,3.03
2018-08-13T02:52:56.336Z,2.00
2018-08-13T02:58:01.067Z,1.90
2018-08-13T03:03:07.081Z,2.27
2018-08-13T03:08:11.893Z,3.07
2018-08-13T03:13:16.731Z,3.03
2018-08-13T03:18:21.589Z,2.23
2018-08-13T03:23:26.583Z,2.50
2018-08-13T03:28:31.498Z,2.70
2018-08-13T03:33:36.337Z,2.53
2018-08-13T03:38:41.036Z,2.00
2018-08-13T03:43:46.138Z,2.40
2018-08-13T03:48:50.841Z,2.53
2018-08-13T03:53:55.865Z,2.10
2018-08-13T03:59:00.745Z,2.03
2018-08-13T04:04:05.643Z,2.83
2018-08-13T04:09:10.635Z,3.43
2018-08-13T04:14:15.354Z,6.23
2018-08-13T04:19:19.973Z,2.73
2018-08-13T04:24:24.853Z,3.90
2018-08-13T04:29:29.696Z,2.60
2018-08-13T04:34:35.446Z,2.60
2018-08-13T04:39:40.307Z,2.73
2018-08-13T04:44:45.092Z,2.07
2018-08-13T04:49:49.819Z,3.20
2018-08-13T04:54:54.548Z,3.30
2018-08-13T04:59:59.207Z,2.23
2018-08-13T05:05:04.209Z,1.97
2018-08-13T05:10:11.040Z,3.37
2018-08-13T05:15:15.868Z,4.07
2018-08-13T05:20:20.874Z,2.00
2018-08-13T05:25:25.690Z,3.37
2018-08-13T05:30:30.551Z,2.70
2018-08-13T05:35:35.549Z,2.70
2018-08-13T05:40:40.335Z,2.73
2018-08-13T05:45:45.133Z,2.73
2018-08-13T05:50:50.158Z,2.60
2018-08-13T05:55:54.934Z,4.40
2018-08-13T06:00:59.772Z,2.40
2018-08-13T06:06:04.502Z,4.50
2018-08-13T06:11:09.406Z,4.73
2018-08-13T06:16:14.164Z,5.13
2018-08-13T06:21:18.917Z,5.30
2018-08-13T06:26:23.824Z,4.43
2018-08-13T06:31:28.569Z,4.20
2018-08-13T06:36:33.323Z,5.70
2018-08-13T06:41:38.116Z,7.00
2018-08-13T06:46:42.870Z,4.47
2018-08-13T06:51:47.793Z,4.43
2018-08-13T06:56:52.498Z,3.50
2018-08-13T07:01:57.280Z,4.83
2018-08-13T07:07:02.315Z,2.90
2018-08-13T07:12:07.226Z,4.57
2018-08-13T07:17:12.037Z,6.90
2018-08-13T07:22:16.960Z,4.03
2018-08-13T07:27:21.885Z,4.10
2018-08-13T07:32:26.616Z,4.17
2018-08-13T07:37:31.402Z,3.13
2018-08-13T07:42:36.236Z,6.13
2018-08-13T07:47:41.205Z,3.27
2018-08-13T07:52:45.993Z,6.23
2018-08-13T07:57:51.068Z,3.03
2018-08-13T08:02:55.954Z,4.97
2018-08-13T08:08:00.794Z,2.47
2018-08-13T08:13:05.592Z,3.13
2018-08-13T08:18:10.435Z,2.60
2018-08-13T08:23:15.339Z,5.50
2018-08-13T08:28:20.304Z,3.60
2018-08-13T08:33:25.340Z,2.80
2018-08-13T08:38:30.157Z,3.73
2018-08-13T08:43:35.055Z,2.53
2018-08-13T08:48:39.805Z,4.67
2018-08-13T08:53:44.503Z,3.50
2018-08-13T08:58:49.261Z,7.13
2018-08-13T09:03:54.053Z,5.53
2018-08-13T09:08:58.866Z,4.30
2018-08-13T09:14:03.813Z,4.23
2018-08-13T09:19:25.219Z,3.60
2018-08-13T09:24:46.852Z,4.60
2018-08-13T09:30:08.282Z,3.90
2018-08-13T09:35:24.867Z,4.87
2018-08-13T09:40:31.066Z,4.07
2018-08-13T09:45:36.027Z,8.47
2018-08-13T09:50:40.853Z,6.33
2018-08-13T09:55:45.639Z,5.73
2018-08-13T10:00:55.447Z,5.10
2018-08-13T10:06:00.156Z,4.83
2018-08-13T10:11:05.010Z,5.80
2018-08-13T10:16:09.924Z,4.70
2018-08-13T10:21:14.676Z,10.47
2018-08-13T10:26:19.384Z,5.40
2018-08-13T10:31:24.140Z,5.70
2018-08-13T10:36:28.877Z,6.73
2018-08-13T10:41:33.577Z,5.70
2018-08-13T10:46:38.714Z,4.40
2018-08-13T10:51:43.477Z,6.43
2018-08-13T10:56:48.304Z,9.03
2018-08-13T11:01:53.180Z,5.40
2018-08-13T11:06:57.914Z,5.20
2018-08-13T11:12:02.836Z,4.90
2018-08-13T11:17:07.714Z,5.63
2018-08-13T11:22:12.592Z,6.00
2018-08-13T11:27:17.372Z,8.63
2018-08-13T11:32:22.184Z,7.03
2018-08-13T11:37:27.018Z,7.27
2018-08-13T11:42:31.806Z,9.07
2018-08-13T11:47:37.062Z,5.87
2018-08-13T11:52:43.153Z,7.80
2018-08-13T11:57:49.363Z,5.10
2018-08-13T12:02:54.227Z,7.47
2018-08-13T12:07:58.995Z,5.80
2018-08-13T12:13:03.772Z,2.87
2018-08-13T12:18:08.560Z,3.57
2018-08-13T12:23:13.234Z,3.17
2018-08-13T12:28:17.955Z,2.43
2018-08-13T12:33:22.839Z,3.23
2018-08-13T12:38:27.726Z,2.60
2018-08-13T12:43:32.559Z,2.90
2018-08-13T12:48:37.242Z,3.23
2018-08-13T12:53:42.143Z,2.13
2018-08-13T12:58:46.866Z,3.27
2018-08-13T13:03:51.721Z,2.37
2018-08-13T13:08:56.498Z,2.17
2018-08-13T13:14:01.242Z,4.13
2018-08-13T13:19:06.024Z,2.17
2018-08-13T13:24:10.832Z,1.90
2018-08-13T13:29:15.741Z,2.50
2018-08-13T13:34:20.511Z,1.90
2018-08-13T13:39:25.257Z,3.37
2018-08-13T13:44:30.053Z,1.90
2018-08-13T13:49:35.572Z,2.20
2018-08-13T13:54:40.364Z,2.67
2018-08-13T13:59:45.348Z,2.73
2018-08-13T14:04:50.308Z,2.03
2018-08-13T14:09:55.152Z,2.20
2018-08-13T14:15:00.092Z,2.13
2018-08-13T14:20:07.091Z,2.00
2018-08-13T14:25:13.581Z,3.03
2018-08-13T14:30:22.198Z,2.00
2018-08-13T14:35:26.967Z,2.83
2018-08-13T14:40:31.764Z,2.10
2018-08-13T14:45:36.817Z,1.53
2018-08-13T14:50:41.645Z,6.80
2018-08-13T14:55:46.689Z,2.20
2018-08-13T15:00:51.444Z,2.17
2018-08-13T15:05:56.276Z,2.73
2018-08-13T15:11:01.052Z,1.80
2018-08-13T15:16:05.846Z,2.20
2018-08-13T15:21:10.686Z,1.80
2018-08-13T15:26:15.626Z,1.93
2018-08-13T15:31:20.523Z,2.03
2018-08-13T15:36:25.392Z,1.70
2018-08-13T15:41:30.161Z,1.60
2018-08-13T15:46:34.967Z,1.90
2018-08-13T15:51:39.819Z,1.63
2018-08-13T15:56:44.967Z,1.97
2018-08-13T16:01:49.894Z,2.23
2018-08-13T16:06:54.627Z,2.70
2018-08-13T16:11:59.420Z,3.47
2018-08-13T16:17:04.327Z,1.97
2018-08-13T16:22:09.166Z,1.70
2018-08-13T16:27:14.117Z,2.20
2018-08-13T16:32:19.026Z,2.00
2018-08-13T16:37:23.917Z,2.03
2018-08-13T16:42:28.670Z,2.40
2018-08-13T16:47:34.477Z,2.90
2018-08-13T16:52:39.259Z,2.20
2018-08-13T16:57:44.017Z,2.50
2018-08-13T17:02:48.932Z,2.63
2018-08-13T17:07:54.121Z,2.03
2018-08-13T17:12:59.713Z,2.10
2018-08-13T17:18:04.820Z,1.60
2018-08-13T17:23:10.022Z,2.83
2018-08-13T17:28:14.909Z,2.70
2018-08-13T17:33:19.764Z,2.20
2018-08-13T17:38:24.569Z,1.70
2018-08-13T17:43:29.374Z,1.77
2018-08-13T17:48:34.257Z,1.83
2018-08-13T17:53:39.245Z,2.33
2018-08-13T17:58:44.216Z,1.47
2018-08-13T18:03:49.189Z,2.83
2018-08-13T18:08:54.290Z,1.90
2018-08-13T18:13:59.159Z,1.97
2018-08-13T18:19:04.065Z,1.87
2018-08-13T18:24:09.245Z,2.07
2018-08-13T18:29:14.165Z,2.23
2018-08-13T18:34:18.890Z,3.07
2018-08-13T18:39:23.621Z,1.93
2018-08-13T18:44:28.533Z,2.43
2018-08-13T18:49:33.445Z,2.97
2018-08-13T18:54:38.396Z,1.53
2018-08-13T18:59:43.267Z,1.73
2018-08-13T19:04:48.197Z,1.90
2018-08-13T19:09:53.055Z,2.00
2018-08-13T19:14:57.919Z,2.37
2018-08-13T19:20:02.690Z,2.10
2018-08-13T19:25:13.158Z,2.40
2018-08-13T19:30:19.304Z,3.13
2018-08-13T19:35:24.424Z,3.03
2018-08-13T19:40:29.359Z,3.90
2018-08-13T19:45:34.449Z,4.03
2018-08-13T19:50:39.546Z,3.20
2018-08-13T19:55:44.302Z,3.50
2018-08-13T20:00:49.152Z,2.80
2018-08-13T20:05:54.128Z,5.00
2018-08-13T20:10:59.401Z,3.00
2018-08-13T20:16:04.712Z,3.03
2018-08-13T20:21:09.571Z,5.97
2018-08-13T20:26:14.506Z,3.27
2018-08-13T20:31:19.459Z,3.60
2018-08-13T20:36:24.385Z,2.70
2018-08-13T20:41:29.330Z,3.60
2018-08-13T20:46:34.218Z,3.87
2018-08-13T20:51:39.368Z,4.67
2018-08-13T20:56:44.300Z,3.20
2018-08-13T21:01:49.151Z,2.67
2018-08-13T21:06:53.938Z,2.90
2018-08-13T21:11:58.849Z,2.67
2018-08-13T21:17:03.650Z,3.00
2018-08-13T21:22:08.754Z,6.87
2018-08-13T21:27:13.621Z,2.70
2018-08-13T21:32:18.581Z,4.03
2018-08-13T21:37:23.399Z,4.27
2018-08-13T21:42:28.126Z,5.57
2018-08-13T21:47:32.999Z,4.23
2018-08-13T21:52:37.871Z,4.73
2018-08-13T21:57:42.720Z,3.97
2018-08-13T22:02:47.793Z,3.50
2018-08-13T22:07:52.607Z,5.43
2018-08-13T22:12:57.579Z,3.20
2018-08-13T22:18:07.439Z,3.83
2018-08-13T22:23:12.150Z,4.27
2018-08-13T22:28:18.889Z,5.80
2018-08-13T22:33:23.845Z,5.37
2018-08-13T22:38:28.569Z,3.47
2018-08-13T22:43:33.325Z,3.87
2018-08-13T22:48:38.133Z,5.67
2018-08-13T22:53:42.992Z,5.50
2018-08-13T22:58:47.961Z,3.50
2018-08-13T23:03:52.796Z,5.30
2018-08-13T23:08:57.558Z,3.53
2018-08-13T23:14:02.399Z,2.77
2018-08-13T23:19:07.201Z,3.27
2018-08-13T23:24:11.873Z,4.03
2018-08-13T23:29:16.768Z,3.47
2018-08-13T23:34:21.546Z,5.33
2018-08-13T23:39:26.224Z,3.50
2018-08-13T23:44:31.015Z,4.47
2018-08-13T23:49:35.771Z,4.50
2018-08-13T23:54:40.704Z,4.77
2018-08-13T23:59:45.561Z,3.77
